sensor_id;sensor_type;location;lat;lon;timestamp;temperature;humidity
50548;DHT22;38013;48.810;8.818;2022-12-11T00:01:35;0.40;74.20
50548;DHT22;38013;48.810;8.818;2022-12-11T00:04:01;0.40;74.20
50548;DHT22;38013;48.810;8.818;2022-12-11T00:06:27;0.40;74.30
50548;DHT22;38013;48.810;8.818;2022-12-11T00:08:53;0.40;74.40
50548;DHT22;38013;48.810;8.818;2022-12-11T00:11:20;0.40;74.70
50548;DHT22;38013;48.810;8.818;2022-12-11T00:13:46;0.30;74.70
50548;DHT22;38013;48.810;8.818;2022-12-11T00:16:12;0.40;74.80
50548;DHT22;38013;48.810;8.818;2022-12-11T00:18:39;0.30;74.90
50548;DHT22;38013;48.810;8.818;2022-12-11T00:21:07;0.40;75.00
50548;DHT22;38013;48.810;8.818;2022-12-11T00:23:35;0.30;75.00
50548;DHT22;38013;48.810;8.818;2022-12-11T00:26:08;0.40;75.20
50548;DHT22;38013;48.810;8.818;2022-12-11T00:28:36;0.40;75.20
50548;DHT22;38013;48.810;8.818;2022-12-11T00:31:06;0.40;75.30
50548;DHT22;38013;48.810;8.818;2022-12-11T00:33:33;0.40;75.40
50548;DHT22;38013;48.810;8.818;2022-12-11T00:35:59;0.40;75.40
50548;DHT22;38013;48.810;8.818;2022-12-11T00:38:25;0.40;75.50
50548;DHT22;38013;48.810;8.818;2022-12-11T00:40:51;0.40;75.40
50548;DHT22;38013;48.810;8.818;2022-12-11T00:43:16;0.40;75.20
50548;DHT22;38013;48.810;8.818;2022-12-11T00:45:44;0.40;75.10
50548;DHT22;38013;48.810;8.818;2022-12-11T00:48:12;0.40;74.90
50548;DHT22;38013;48.810;8.818;2022-12-11T00:50:38;0.40;74.80
50548;DHT22;38013;48.810;8.818;2022-12-11T00:53:05;0.40;74.80
50548;DHT22;38013;48.810;8.818;2022-12-11T00:55:35;0.40;74.70
50548;DHT22;38013;48.810;8.818;2022-12-11T00:58:02;0.40;74.80
50548;DHT22;38013;48.810;8.818;2022-12-11T01:00:28;0.30;74.70
50548;DHT22;38013;48.810;8.818;2022-12-11T01:02:54;0.30;74.70
50548;DHT22;38013;48.810;8.818;2022-12-11T01:05:20;0.30;74.90
50548;DHT22;38013;48.810;8.818;2022-12-11T01:07:46;0.30;75.00
50548;DHT22;38013;48.810;8.818;2022-12-11T01:10:12;0.30;75.10
50548;DHT22;38013;48.810;8.818;2022-12-11T01:12:55;0.30;75.10
50548;DHT22;38013;48.810;8.818;2022-12-11T01:15:28;0.40;75.20
50548;DHT22;38013;48.810;8.818;2022-12-11T01:17:59;0.40;75.20
50548;DHT22;38013;48.810;8.818;2022-12-11T01:20:26;0.40;75.10
50548;DHT22;38013;48.810;8.818;2022-12-11T01:22:55;0.40;75.10
50548;DHT22;38013;48.810;8.818;2022-12-11T01:25:22;0.40;75.00
50548;DHT22;38013;48.810;8.818;2022-12-11T01:27:52;0.40;75.20
50548;DHT22;38013;48.810;8.818;2022-12-11T01:30:21;0.40;74.80
50548;DHT22;38013;48.810;8.818;2022-12-11T01:32:48;0.40;74.70
50548;DHT22;38013;48.810;8.818;2022-12-11T01:35:14;0.40;74.70
50548;DHT22;38013;48.810;8.818;2022-12-11T01:37:40;0.30;74.50
50548;DHT22;38013;48.810;8.818;2022-12-11T01:40:08;0.30;74.50
50548;DHT22;38013;48.810;8.818;2022-12-11T01:42:34;0.30;74.50
50548;DHT22;38013;48.810;8.818;2022-12-11T01:45:24;0.20;74.50
50548;DHT22;38013;48.810;8.818;2022-12-11T01:48:01;0.20;74.40
50548;DHT22;38013;48.810;8.818;2022-12-11T01:50:33;0.20;74.50
50548;DHT22;38013;48.810;8.818;2022-12-11T01:53:01;0.20;74.40
50548;DHT22;38013;48.810;8.818;2022-12-11T01:55:29;0.20;74.50
50548;DHT22;38013;48.810;8.818;2022-12-11T01:57:54;0.10;74.40
50548;DHT22;38013;48.810;8.818;2022-12-11T02:00:20;0.10;74.50
50548;DHT22;38013;48.810;8.818;2022-12-11T02:02:46;0.10;74.50
50548;DHT22;38013;48.810;8.818;2022-12-11T02:05:12;0.10;74.40
50548;DHT22;38013;48.810;8.818;2022-12-11T02:07:48;0.00;74.90
50548;DHT22;38013;48.810;8.818;2022-12-11T02:10:17;0.00;74.20
50548;DHT22;38013;48.810;8.818;2022-12-11T02:13:00;0.00;74.20
50548;DHT22;38013;48.810;8.818;2022-12-11T02:15:36;0.00;74.10
50548;DHT22;38013;48.810;8.818;2022-12-11T02:18:35;-0.10;74.00
50548;DHT22;38013;48.810;8.818;2022-12-11T02:21:08;-0.10;74.00
50548;DHT22;38013;48.810;8.818;2022-12-11T02:29:38;-0.20;74.10
50548;DHT22;38013;48.810;8.818;2022-12-11T02:32:20;-0.30;74.00
50548;DHT22;38013;48.810;8.818;2022-12-11T02:37:35;-0.30;74.10
50548;DHT22;38013;48.810;8.818;2022-12-11T02:40:05;-0.30;74.00
50548;DHT22;38013;48.810;8.818;2022-12-11T02:42:34;-0.40;74.00
50548;DHT22;38013;48.810;8.818;2022-12-11T02:45:03;-0.40;74.10
50548;DHT22;38013;48.810;8.818;2022-12-11T02:47:32;-0.50;74.10
50548;DHT22;38013;48.810;8.818;2022-12-11T02:50:00;-0.50;74.30
50548;DHT22;38013;48.810;8.818;2022-12-11T02:52:28;-0.50;74.30
50548;DHT22;38013;48.810;8.818;2022-12-11T02:54:56;-0.50;74.50
50548;DHT22;38013;48.810;8.818;2022-12-11T02:57:28;-0.50;74.50
50548;DHT22;38013;48.810;8.818;2022-12-11T02:59:58;-0.60;74.60
50548;DHT22;38013;48.810;8.818;2022-12-11T03:02:23;-0.60;74.80
50548;DHT22;38013;48.810;8.818;2022-12-11T03:04:49;-0.60;74.90
50548;DHT22;38013;48.810;8.818;2022-12-11T03:07:20;-0.60;75.00
50548;DHT22;38013;48.810;8.818;2022-12-11T03:09:50;-0.50;75.10
50548;DHT22;38013;48.810;8.818;2022-12-11T03:12:19;-0.50;75.10
50548;DHT22;38013;48.810;8.818;2022-12-11T03:14:48;-0.50;75.20
50548;DHT22;38013;48.810;8.818;2022-12-11T03:17:18;-0.50;75.30
50548;DHT22;38013;48.810;8.818;2022-12-11T03:20:12;-0.50;75.30
50548;DHT22;38013;48.810;8.818;2022-12-11T03:23:08;-0.40;75.40
50548;DHT22;38013;48.810;8.818;2022-12-11T03:25:46;-0.40;75.30
50548;DHT22;38013;48.810;8.818;2022-12-11T03:28:40;-0.40;75.30
50548;DHT22;38013;48.810;8.818;2022-12-11T03:31:12;-0.30;75.40
50548;DHT22;38013;48.810;8.818;2022-12-11T03:33:44;-0.30;75.50
50548;DHT22;38013;48.810;8.818;2022-12-11T03:36:12;-0.20;75.60
50548;DHT22;38013;48.810;8.818;2022-12-11T03:38:53;-0.20;75.70
50548;DHT22;38013;48.810;8.818;2022-12-11T03:41:23;-0.20;75.40
50548;DHT22;38013;48.810;8.818;2022-12-11T03:43:52;-0.10;75.40
50548;DHT22;38013;48.810;8.818;2022-12-11T03:46:22;0.00;75.40
50548;DHT22;38013;48.810;8.818;2022-12-11T03:48:53;0.00;75.30
50548;DHT22;38013;48.810;8.818;2022-12-11T03:51:21;0.00;75.30
50548;DHT22;38013;48.810;8.818;2022-12-11T03:53:49;0.10;75.30
50548;DHT22;38013;48.810;8.818;2022-12-11T03:56:15;0.10;75.30
50548;DHT22;38013;48.810;8.818;2022-12-11T03:58:41;0.10;75.20
50548;DHT22;38013;48.810;8.818;2022-12-11T04:01:09;0.10;75.20
50548;DHT22;38013;48.810;8.818;2022-12-11T04:03:35;0.20;75.90
50548;DHT22;38013;48.810;8.818;2022-12-11T04:06:02;0.20;75.30
50548;DHT22;38013;48.810;8.818;2022-12-11T04:08:27;0.20;75.30
50548;DHT22;38013;48.810;8.818;2022-12-11T04:10:53;0.30;75.20
50548;DHT22;38013;48.810;8.818;2022-12-11T04:13:39;0.30;75.20
50548;DHT22;38013;48.810;8.818;2022-12-11T04:16:06;0.30;75.10
50548;DHT22;38013;48.810;8.818;2022-12-11T04:18:32;0.30;75.20
50548;DHT22;38013;48.810;8.818;2022-12-11T04:21:16;0.30;75.10
50548;DHT22;38013;48.810;8.818;2022-12-11T04:24:00;0.40;75.00
50548;DHT22;38013;48.810;8.818;2022-12-11T04:26:45;0.40;75.00
50548;DHT22;38013;48.810;8.818;2022-12-11T04:29:12;0.40;74.90
50548;DHT22;38013;48.810;8.818;2022-12-11T04:31:38;0.40;74.90
50548;DHT22;38013;48.810;8.818;2022-12-11T04:34:04;0.40;75.50
50548;DHT22;38013;48.810;8.818;2022-12-11T04:36:30;0.40;74.90
50548;DHT22;38013;48.810;8.818;2022-12-11T04:38:56;0.50;75.00
50548;DHT22;38013;48.810;8.818;2022-12-11T04:41:22;0.50;74.90
50548;DHT22;38013;48.810;8.818;2022-12-11T04:43:47;0.50;74.90
50548;DHT22;38013;48.810;8.818;2022-12-11T04:46:16;0.50;74.80
50548;DHT22;38013;48.810;8.818;2022-12-11T04:48:43;0.50;74.80
50548;DHT22;38013;48.810;8.818;2022-12-11T04:51:10;0.60;74.70
50548;DHT22;38013;48.810;8.818;2022-12-11T04:53:36;0.60;74.60
50548;DHT22;38013;48.810;8.818;2022-12-11T04:56:06;0.60;75.10
50548;DHT22;38013;48.810;8.818;2022-12-11T04:58:34;0.60;74.50
50548;DHT22;38013;48.810;8.818;2022-12-11T05:01:14;0.60;74.50
50548;DHT22;38013;48.810;8.818;2022-12-11T05:03:42;0.60;74.40
50548;DHT22;38013;48.810;8.818;2022-12-11T05:06:09;0.60;74.50
50548;DHT22;38013;48.810;8.818;2022-12-11T05:08:37;0.60;74.50
50548;DHT22;38013;48.810;8.818;2022-12-11T05:11:06;0.60;74.50
50548;DHT22;38013;48.810;8.818;2022-12-11T05:13:34;0.60;74.40
50548;DHT22;38013;48.810;8.818;2022-12-11T05:16:03;0.60;74.30
50548;DHT22;38013;48.810;8.818;2022-12-11T05:18:30;0.60;74.30
50548;DHT22;38013;48.810;8.818;2022-12-11T05:21:00;0.60;74.30
50548;DHT22;38013;48.810;8.818;2022-12-11T05:23:28;0.60;74.20
50548;DHT22;38013;48.810;8.818;2022-12-11T05:25:56;0.60;74.10
50548;DHT22;38013;48.810;8.818;2022-12-11T05:28:25;0.60;74.10
50548;DHT22;38013;48.810;8.818;2022-12-11T05:31:00;0.60;74.10
50548;DHT22;38013;48.810;8.818;2022-12-11T05:33:34;0.60;74.00
50548;DHT22;38013;48.810;8.818;2022-12-11T05:36:00;0.60;74.10
50548;DHT22;38013;48.810;8.818;2022-12-11T05:38:26;0.60;74.10
50548;DHT22;38013;48.810;8.818;2022-12-11T05:40:56;0.60;74.10
50548;DHT22;38013;48.810;8.818;2022-12-11T05:43:23;0.60;74.00
50548;DHT22;38013;48.810;8.818;2022-12-11T05:45:49;0.60;73.90
50548;DHT22;38013;48.810;8.818;2022-12-11T05:48:15;0.60;73.80
50548;DHT22;38013;48.810;8.818;2022-12-11T05:50:41;0.60;73.70
50548;DHT22;38013;48.810;8.818;2022-12-11T05:53:06;0.50;73.60
50548;DHT22;38013;48.810;8.818;2022-12-11T05:55:36;0.50;73.40
50548;DHT22;38013;48.810;8.818;2022-12-11T05:58:01;0.50;73.40
50548;DHT22;38013;48.810;8.818;2022-12-11T06:00:27;0.50;73.30
50548;DHT22;38013;48.810;8.818;2022-12-11T06:02:53;0.40;73.10
50548;DHT22;38013;48.810;8.818;2022-12-11T06:05:19;0.40;73.00
50548;DHT22;38013;48.810;8.818;2022-12-11T06:07:44;0.30;72.90
50548;DHT22;38013;48.810;8.818;2022-12-11T06:10:10;0.20;72.90
50548;DHT22;38013;48.810;8.818;2022-12-11T06:12:36;0.10;73.00
50548;DHT22;38013;48.810;8.818;2022-12-11T06:15:02;0.10;73.10
50548;DHT22;38013;48.810;8.818;2022-12-11T06:17:29;0.10;73.00
50548;DHT22;38013;48.810;8.818;2022-12-11T06:19:55;0.00;72.90
50548;DHT22;38013;48.810;8.818;2022-12-11T06:22:21;-0.10;72.80
50548;DHT22;38013;48.810;8.818;2022-12-11T06:24:47;-0.20;72.80
50548;DHT22;38013;48.810;8.818;2022-12-11T06:27:12;-0.20;72.90
50548;DHT22;38013;48.810;8.818;2022-12-11T06:29:39;-0.30;72.90
50548;DHT22;38013;48.810;8.818;2022-12-11T06:32:05;-0.40;72.80
50548;DHT22;38013;48.810;8.818;2022-12-11T06:34:31;-0.40;72.80
50548;DHT22;38013;48.810;8.818;2022-12-11T06:36:56;-0.40;72.80
50548;DHT22;38013;48.810;8.818;2022-12-11T06:39:22;-0.50;72.70
50548;DHT22;38013;48.810;8.818;2022-12-11T06:41:48;-0.50;72.50
50548;DHT22;38013;48.810;8.818;2022-12-11T06:44:14;-0.60;72.60
50548;DHT22;38013;48.810;8.818;2022-12-11T06:46:39;-0.70;72.90
50548;DHT22;38013;48.810;8.818;2022-12-11T06:49:05;-0.80;73.10
50548;DHT22;38013;48.810;8.818;2022-12-11T06:51:31;-0.80;73.40
50548;DHT22;38013;48.810;8.818;2022-12-11T06:53:57;-0.80;73.60
50548;DHT22;38013;48.810;8.818;2022-12-11T06:56:23;-0.80;73.70
50548;DHT22;38013;48.810;8.818;2022-12-11T06:58:49;-0.90;73.80
50548;DHT22;38013;48.810;8.818;2022-12-11T07:01:21;-0.90;73.90
50548;DHT22;38013;48.810;8.818;2022-12-11T07:03:51;-0.90;74.10
50548;DHT22;38013;48.810;8.818;2022-12-11T07:06:17;-0.90;74.20
50548;DHT22;38013;48.810;8.818;2022-12-11T07:08:43;-0.90;74.30
50548;DHT22;38013;48.810;8.818;2022-12-11T07:11:13;-0.90;74.50
50548;DHT22;38013;48.810;8.818;2022-12-11T07:13:40;-0.90;74.70
50548;DHT22;38013;48.810;8.818;2022-12-11T07:16:07;-0.90;74.80
50548;DHT22;38013;48.810;8.818;2022-12-11T07:18:39;-0.80;74.90
50548;DHT22;38013;48.810;8.818;2022-12-11T07:21:07;-0.80;74.90
50548;DHT22;38013;48.810;8.818;2022-12-11T07:23:34;-0.70;75.00
50548;DHT22;38013;48.810;8.818;2022-12-11T07:26:05;-0.70;75.00
50548;DHT22;38013;48.810;8.818;2022-12-11T07:28:38;-0.70;75.00
50548;DHT22;38013;48.810;8.818;2022-12-11T07:31:09;-0.60;75.00
50548;DHT22;38013;48.810;8.818;2022-12-11T07:33:39;-0.60;74.90
50548;DHT22;38013;48.810;8.818;2022-12-11T07:36:07;-0.60;74.70
50548;DHT22;38013;48.810;8.818;2022-12-11T07:38:34;-0.50;74.60
50548;DHT22;38013;48.810;8.818;2022-12-11T07:41:05;-0.50;74.50
50548;DHT22;38013;48.810;8.818;2022-12-11T07:43:34;-0.50;74.30
50548;DHT22;38013;48.810;8.818;2022-12-11T07:46:05;-0.50;74.30
50548;DHT22;38013;48.810;8.818;2022-12-11T07:48:34;-0.50;74.30
50548;DHT22;38013;48.810;8.818;2022-12-11T07:51:12;-0.40;74.40
50548;DHT22;38013;48.810;8.818;2022-12-11T07:53:40;-0.40;74.50
50548;DHT22;38013;48.810;8.818;2022-12-11T07:56:08;-0.40;74.60
50548;DHT22;38013;48.810;8.818;2022-12-11T07:58:33;-0.40;74.50
50548;DHT22;38013;48.810;8.818;2022-12-11T08:01:00;-0.40;74.50
50548;DHT22;38013;48.810;8.818;2022-12-11T08:03:26;-0.30;74.50
50548;DHT22;38013;48.810;8.818;2022-12-11T08:05:52;-0.30;74.60
50548;DHT22;38013;48.810;8.818;2022-12-11T08:08:18;-0.30;74.40
50548;DHT22;38013;48.810;8.818;2022-12-11T08:10:45;-0.30;74.40
50548;DHT22;38013;48.810;8.818;2022-12-11T08:13:11;-0.30;74.40
50548;DHT22;38013;48.810;8.818;2022-12-11T08:15:37;-0.20;74.60
50548;DHT22;38013;48.810;8.818;2022-12-11T08:18:03;-0.20;74.70
50548;DHT22;38013;48.810;8.818;2022-12-11T08:20:29;-0.20;74.50
50548;DHT22;38013;48.810;8.818;2022-12-11T08:22:55;-0.20;74.50
50548;DHT22;38013;48.810;8.818;2022-12-11T08:25:22;-0.10;74.50
50548;DHT22;38013;48.810;8.818;2022-12-11T08:27:47;-0.10;74.50
50548;DHT22;38013;48.810;8.818;2022-12-11T08:30:13;-0.10;74.40
50548;DHT22;38013;48.810;8.818;2022-12-11T08:32:39;-0.10;74.30
50548;DHT22;38013;48.810;8.818;2022-12-11T08:35:06;-0.10;74.30
50548;DHT22;38013;48.810;8.818;2022-12-11T08:37:35;-0.10;74.30
50548;DHT22;38013;48.810;8.818;2022-12-11T08:40:01;0.00;74.40
50548;DHT22;38013;48.810;8.818;2022-12-11T08:42:27;0.00;74.40
50548;DHT22;38013;48.810;8.818;2022-12-11T08:44:52;0.00;74.50
50548;DHT22;38013;48.810;8.818;2022-12-11T08:47:18;0.00;74.60
50548;DHT22;38013;48.810;8.818;2022-12-11T08:49:45;0.10;74.60
50548;DHT22;38013;48.810;8.818;2022-12-11T08:52:10;0.10;74.50
50548;DHT22;38013;48.810;8.818;2022-12-11T08:54:37;0.10;74.30
50548;DHT22;38013;48.810;8.818;2022-12-11T08:57:03;0.20;74.30
50548;DHT22;38013;48.810;8.818;2022-12-11T08:59:29;0.20;74.10
50548;DHT22;38013;48.810;8.818;2022-12-11T09:01:55;0.30;74.00
50548;DHT22;38013;48.810;8.818;2022-12-11T09:04:21;0.20;74.00
50548;DHT22;38013;48.810;8.818;2022-12-11T09:06:47;0.20;74.00
50548;DHT22;38013;48.810;8.818;2022-12-11T09:09:13;0.20;74.00
50548;DHT22;38013;48.810;8.818;2022-12-11T09:11:39;0.30;74.10
50548;DHT22;38013;48.810;8.818;2022-12-11T09:14:05;0.30;74.10
50548;DHT22;38013;48.810;8.818;2022-12-11T09:16:32;0.40;74.30
50548;DHT22;38013;48.810;8.818;2022-12-11T09:19:02;0.50;74.50
50548;DHT22;38013;48.810;8.818;2022-12-11T09:21:29;0.50;74.50
50548;DHT22;38013;48.810;8.818;2022-12-11T09:23:56;0.50;74.50
50548;DHT22;38013;48.810;8.818;2022-12-11T09:26:23;0.60;74.60
50548;DHT22;38013;48.810;8.818;2022-12-11T09:28:50;0.60;74.60
50548;DHT22;38013;48.810;8.818;2022-12-11T09:31:28;0.70;74.80
50548;DHT22;38013;48.810;8.818;2022-12-11T09:33:58;0.80;74.80
50548;DHT22;38013;48.810;8.818;2022-12-11T09:36:25;0.80;75.00
50548;DHT22;38013;48.810;8.818;2022-12-11T09:38:52;0.90;74.80
50548;DHT22;38013;48.810;8.818;2022-12-11T09:44:01;1.10;75.00
50548;DHT22;38013;48.810;8.818;2022-12-11T09:46:41;1.20;75.00
50548;DHT22;38013;48.810;8.818;2022-12-11T09:49:40;1.30;75.10
50548;DHT22;38013;48.810;8.818;2022-12-11T09:52:25;1.50;74.80
50548;DHT22;38013;48.810;8.818;2022-12-11T09:55:09;1.60;74.70
50548;DHT22;38013;48.810;8.818;2022-12-11T10:01:30;1.90;74.50
50548;DHT22;38013;48.810;8.818;2022-12-11T10:04:13;2.00;74.80
50548;DHT22;38013;48.810;8.818;2022-12-11T10:10:36;2.30;73.50
50548;DHT22;38013;48.810;8.818;2022-12-11T10:16:49;2.50;72.30
50548;DHT22;38013;48.810;8.818;2022-12-11T10:19:19;2.60;72.30
50548;DHT22;38013;48.810;8.818;2022-12-11T10:21:48;2.60;72.50
50548;DHT22;38013;48.810;8.818;2022-12-11T10:24:33;2.70;73.00
50548;DHT22;38013;48.810;8.818;2022-12-11T10:27:16;2.60;71.80
50548;DHT22;38013;48.810;8.818;2022-12-11T10:29:58;2.60;71.80
50548;DHT22;38013;48.810;8.818;2022-12-11T10:35:35;2.60;72.00
50548;DHT22;38013;48.810;8.818;2022-12-11T10:41:01;2.70;71.70
50548;DHT22;38013;48.810;8.818;2022-12-11T10:43:35;2.60;72.30
50548;DHT22;38013;48.810;8.818;2022-12-11T10:46:04;2.70;72.30
50548;DHT22;38013;48.810;8.818;2022-12-11T10:48:30;2.70;72.30
50548;DHT22;38013;48.810;8.818;2022-12-11T10:51:04;2.70;72.30
50548;DHT22;38013;48.810;8.818;2022-12-11T10:53:32;2.70;72.30
50548;DHT22;38013;48.810;8.818;2022-12-11T10:55:59;2.70;72.50
50548;DHT22;38013;48.810;8.818;2022-12-11T10:58:28;2.80;72.60
50548;DHT22;38013;48.810;8.818;2022-12-11T11:01:10;2.80;72.40
50548;DHT22;38013;48.810;8.818;2022-12-11T11:06:47;2.90;72.10
50548;DHT22;38013;48.810;8.818;2022-12-11T11:09:34;3.00;72.60
50548;DHT22;38013;48.810;8.818;2022-12-11T11:12:00;3.10;71.90
50548;DHT22;38013;48.810;8.818;2022-12-11T11:14:26;3.10;72.40
50548;DHT22;38013;48.810;8.818;2022-12-11T11:16:55;3.10;72.20
50548;DHT22;38013;48.810;8.818;2022-12-11T11:19:32;3.20;71.90
50548;DHT22;38013;48.810;8.818;2022-12-11T11:22:14;3.30;71.50
50548;DHT22;38013;48.810;8.818;2022-12-11T11:25:01;3.30;71.20
50548;DHT22;38013;48.810;8.818;2022-12-11T11:27:43;3.30;70.80
50548;DHT22;38013;48.810;8.818;2022-12-11T11:30:25;3.30;71.00
50548;DHT22;38013;48.810;8.818;2022-12-11T11:33:11;3.40;71.00
50548;DHT22;38013;48.810;8.818;2022-12-11T11:35:39;3.40;70.90
50548;DHT22;38013;48.810;8.818;2022-12-11T11:38:18;3.40;71.20
50548;DHT22;38013;48.810;8.818;2022-12-11T11:43:39;3.50;71.00
50548;DHT22;38013;48.810;8.818;2022-12-11T11:51:44;3.60;70.90
50548;DHT22;38013;48.810;8.818;2022-12-11T11:54:32;3.60;70.50
50548;DHT22;38013;48.810;8.818;2022-12-11T11:57:28;3.60;70.40
50548;DHT22;38013;48.810;8.818;2022-12-11T12:00:07;3.60;70.00
50548;DHT22;38013;48.810;8.818;2022-12-11T12:02:54;3.60;70.30
50548;DHT22;38013;48.810;8.818;2022-12-11T12:05:26;3.60;70.20
50548;DHT22;38013;48.810;8.818;2022-12-11T12:11:08;3.60;69.60
50548;DHT22;38013;48.810;8.818;2022-12-11T12:14:13;3.50;70.10
50548;DHT22;38013;48.810;8.818;2022-12-11T12:22:14;3.50;70.50
50548;DHT22;38013;48.810;8.818;2022-12-11T12:25:14;3.50;70.30
50548;DHT22;38013;48.810;8.818;2022-12-11T12:27:59;3.50;70.10
50548;DHT22;38013;48.810;8.818;2022-12-11T12:40:11;3.50;70.20
50548;DHT22;38013;48.810;8.818;2022-12-11T12:48:35;3.60;70.50
50548;DHT22;38013;48.810;8.818;2022-12-11T12:51:01;3.60;70.50
50548;DHT22;38013;48.810;8.818;2022-12-11T12:53:31;3.60;70.50
50548;DHT22;38013;48.810;8.818;2022-12-11T12:56:00;3.70;70.30
50548;DHT22;38013;48.810;8.818;2022-12-11T13:01:18;3.70;70.30
50548;DHT22;38013;48.810;8.818;2022-12-11T13:06:15;3.80;70.20
50548;DHT22;38013;48.810;8.818;2022-12-11T13:11:44;3.90;69.50
50548;DHT22;38013;48.810;8.818;2022-12-11T13:16:41;3.90;69.60
50548;DHT22;38013;48.810;8.818;2022-12-11T13:27:36;4.00;69.50
50548;DHT22;38013;48.810;8.818;2022-12-11T13:30:24;3.90;69.50
50548;DHT22;38013;48.810;8.818;2022-12-11T13:35:31;3.90;69.80
50548;DHT22;38013;48.810;8.818;2022-12-11T13:38:05;4.00;70.10
50548;DHT22;38013;48.810;8.818;2022-12-11T13:40:38;4.00;70.00
50548;DHT22;38013;48.810;8.818;2022-12-11T13:43:17;4.00;69.90
50548;DHT22;38013;48.810;8.818;2022-12-11T13:45:51;4.00;69.70
50548;DHT22;38013;48.810;8.818;2022-12-11T13:48:27;4.00;70.00
50548;DHT22;38013;48.810;8.818;2022-12-11T13:50:57;3.90;69.90
50548;DHT22;38013;48.810;8.818;2022-12-11T13:53:23;4.00;69.90
50548;DHT22;38013;48.810;8.818;2022-12-11T13:56:00;3.90;69.80
50548;DHT22;38013;48.810;8.818;2022-12-11T13:58:28;4.00;69.50
50548;DHT22;38013;48.810;8.818;2022-12-11T14:03:32;3.90;69.40
50548;DHT22;38013;48.810;8.818;2022-12-11T14:06:00;3.90;69.60
50548;DHT22;38013;48.810;8.818;2022-12-11T14:08:34;3.90;69.70
50548;DHT22;38013;48.810;8.818;2022-12-11T14:11:02;3.90;69.50
50548;DHT22;38013;48.810;8.818;2022-12-11T14:13:36;3.90;69.60
50548;DHT22;38013;48.810;8.818;2022-12-11T14:16:05;3.80;69.30
50548;DHT22;38013;48.810;8.818;2022-12-11T14:18:32;3.80;69.50
50548;DHT22;38013;48.810;8.818;2022-12-11T14:21:05;3.80;69.60
50548;DHT22;38013;48.810;8.818;2022-12-11T14:23:32;3.80;69.60
50548;DHT22;38013;48.810;8.818;2022-12-11T14:26:02;3.80;69.70
50548;DHT22;38013;48.810;8.818;2022-12-11T14:28:36;3.80;69.70
50548;DHT22;38013;48.810;8.818;2022-12-11T14:31:04;3.70;69.40
50548;DHT22;38013;48.810;8.818;2022-12-11T14:33:36;3.70;69.50
50548;DHT22;38013;48.810;8.818;2022-12-11T14:36:04;3.70;69.40
50548;DHT22;38013;48.810;8.818;2022-12-11T14:38:38;3.60;69.40
50548;DHT22;38013;48.810;8.818;2022-12-11T14:41:15;3.60;69.40
50548;DHT22;38013;48.810;8.818;2022-12-11T14:43:48;3.60;69.50
50548;DHT22;38013;48.810;8.818;2022-12-11T14:46:26;3.50;69.70
50548;DHT22;38013;48.810;8.818;2022-12-11T14:49:02;3.50;69.70
50548;DHT22;38013;48.810;8.818;2022-12-11T14:51:35;3.50;69.70
50548;DHT22;38013;48.810;8.818;2022-12-11T14:54:04;3.50;69.70
50548;DHT22;38013;48.810;8.818;2022-12-11T14:56:31;3.40;69.70
50548;DHT22;38013;48.810;8.818;2022-12-11T14:59:04;3.40;69.80
50548;DHT22;38013;48.810;8.818;2022-12-11T15:01:35;3.40;69.80
50548;DHT22;38013;48.810;8.818;2022-12-11T15:04:03;3.30;69.70
50548;DHT22;38013;48.810;8.818;2022-12-11T15:06:50;3.30;69.70
50548;DHT22;38013;48.810;8.818;2022-12-11T15:09:18;3.30;69.70
50548;DHT22;38013;48.810;8.818;2022-12-11T15:12:12;3.20;69.60
50548;DHT22;38013;48.810;8.818;2022-12-11T15:14:50;3.10;69.60
50548;DHT22;38013;48.810;8.818;2022-12-11T15:17:18;3.00;69.80
50548;DHT22;38013;48.810;8.818;2022-12-11T15:19:48;2.90;70.00
50548;DHT22;38013;48.810;8.818;2022-12-11T15:22:17;2.90;70.20
50548;DHT22;38013;48.810;8.818;2022-12-11T15:24:44;2.90;70.30
50548;DHT22;38013;48.810;8.818;2022-12-11T15:27:33;2.80;70.50
50548;DHT22;38013;48.810;8.818;2022-12-11T15:30:13;2.70;70.90
50548;DHT22;38013;48.810;8.818;2022-12-11T15:33:04;2.60;70.90
50548;DHT22;38013;48.810;8.818;2022-12-11T15:35:30;2.60;71.10
50548;DHT22;38013;48.810;8.818;2022-12-11T15:37:57;2.60;71.20
50548;DHT22;38013;48.810;8.818;2022-12-11T15:40:23;2.60;71.40
50548;DHT22;38013;48.810;8.818;2022-12-11T15:42:50;2.60;71.50
50548;DHT22;38013;48.810;8.818;2022-12-11T15:45:20;2.60;71.70
50548;DHT22;38013;48.810;8.818;2022-12-11T15:47:48;2.50;71.70
50548;DHT22;38013;48.810;8.818;2022-12-11T15:50:23;2.50;71.70
50548;DHT22;38013;48.810;8.818;2022-12-11T15:52:51;2.50;71.70
50548;DHT22;38013;48.810;8.818;2022-12-11T15:55:18;2.50;71.70
50548;DHT22;38013;48.810;8.818;2022-12-11T15:57:48;2.50;71.70
50548;DHT22;38013;48.810;8.818;2022-12-11T16:00:17;2.50;71.80
50548;DHT22;38013;48.810;8.818;2022-12-11T16:02:44;2.50;72.40
50548;DHT22;38013;48.810;8.818;2022-12-11T16:05:11;2.50;71.70
50548;DHT22;38013;48.810;8.818;2022-12-11T16:07:37;2.50;71.70
50548;DHT22;38013;48.810;8.818;2022-12-11T16:10:04;2.50;71.80
50548;DHT22;38013;48.810;8.818;2022-12-11T16:12:31;2.50;71.80
50548;DHT22;38013;48.810;8.818;2022-12-11T16:14:56;2.40;71.80
50548;DHT22;38013;48.810;8.818;2022-12-11T16:17:22;2.40;71.80
50548;DHT22;38013;48.810;8.818;2022-12-11T16:19:48;2.40;71.80
50548;DHT22;38013;48.810;8.818;2022-12-11T16:22:14;2.30;71.80
50548;DHT22;38013;48.810;8.818;2022-12-11T16:24:40;2.30;71.80
50548;DHT22;38013;48.810;8.818;2022-12-11T16:27:07;2.30;71.90
50548;DHT22;38013;48.810;8.818;2022-12-11T16:29:35;2.20;72.00
50548;DHT22;38013;48.810;8.818;2022-12-11T16:32:02;2.20;72.10
50548;DHT22;38013;48.810;8.818;2022-12-11T16:34:28;2.10;72.10
50548;DHT22;38013;48.810;8.818;2022-12-11T16:36:56;2.10;72.20
50548;DHT22;38013;48.810;8.818;2022-12-11T16:39:23;2.10;72.20
50548;DHT22;38013;48.810;8.818;2022-12-11T16:41:48;2.00;72.20
50548;DHT22;38013;48.810;8.818;2022-12-11T16:44:23;2.00;72.20
50548;DHT22;38013;48.810;8.818;2022-12-11T16:46:50;2.00;72.50
50548;DHT22;38013;48.810;8.818;2022-12-11T16:49:17;2.00;72.50
50548;DHT22;38013;48.810;8.818;2022-12-11T16:51:43;1.90;72.50
50548;DHT22;38013;48.810;8.818;2022-12-11T16:54:09;1.90;72.40
50548;DHT22;38013;48.810;8.818;2022-12-11T16:56:36;1.90;72.40
50548;DHT22;38013;48.810;8.818;2022-12-11T16:59:04;1.90;72.40
50548;DHT22;38013;48.810;8.818;2022-12-11T17:01:30;1.90;72.50
50548;DHT22;38013;48.810;8.818;2022-12-11T17:03:56;1.90;72.50
50548;DHT22;38013;48.810;8.818;2022-12-11T17:06:23;1.80;72.50
50548;DHT22;38013;48.810;8.818;2022-12-11T17:08:49;1.90;72.60
50548;DHT22;38013;48.810;8.818;2022-12-11T17:11:18;1.90;72.60
50548;DHT22;38013;48.810;8.818;2022-12-11T17:13:46;1.90;72.70
50548;DHT22;38013;48.810;8.818;2022-12-11T17:16:16;1.90;72.70
50548;DHT22;38013;48.810;8.818;2022-12-11T17:18:42;1.90;72.70
50548;DHT22;38013;48.810;8.818;2022-12-11T17:21:10;1.90;72.50
50548;DHT22;38013;48.810;8.818;2022-12-11T17:23:38;1.90;72.50
50548;DHT22;38013;48.810;8.818;2022-12-11T17:26:05;1.90;72.50
50548;DHT22;38013;48.810;8.818;2022-12-11T17:28:33;1.90;72.50
50548;DHT22;38013;48.810;8.818;2022-12-11T17:31:03;1.90;72.50